sensor_id;sensor_type;location;lat;lon;timestamp;pressure;altitude;pressure_sealevel;temperature;humidity
58373;BME280;44177;43.356;27.672;2022-10-16T00:00:44;98817.75;;;16.80;47.94
58373;BME280;44177;43.356;27.672;2022-10-16T00:03:09;98816.16;;;16.79;48.13
58373;BME280;44177;43.356;27.672;2022-10-16T00:05:41;98816.53;;;16.77;48.09
58373;BME280;44177;43.356;27.672;2022-10-16T00:08:09;98829.91;;;16.79;48.14
58373;BME280;44177;43.356;27.672;2022-10-16T00:10:35;98820.50;;;16.80;48.21
58373;BME280;44177;43.356;27.672;2022-10-16T00:13:01;98820.50;;;16.80;48.24
58373;BME280;44177;43.356;27.672;2022-10-16T00:15:27;98823.25;;;16.80;48.06
58373;BME280;44177;43.356;27.672;2022-10-16T00:17:52;98826.00;;;16.80;48.24
58373;BME280;44177;43.356;27.672;2022-10-16T00:20:18;98818.91;;;16.79;48.09
58373;BME280;44177;43.356;27.672;2022-10-16T00:22:43;98823.25;;;16.80;47.88
58373;BME280;44177;43.356;27.672;2022-10-16T00:25:09;98817.75;;;16.80;47.86
58373;BME280;44177;43.356;27.672;2022-10-16T00:27:34;98814.19;;;16.79;47.81
58373;BME280;44177;43.356;27.672;2022-10-16T00:30:00;98817.31;;;16.78;47.93
58373;BME280;44177;43.356;27.672;2022-10-16T00:32:25;98817.31;;;16.78;48.08
58373;BME280;44177;43.356;27.672;2022-10-16T00:34:51;98821.66;;;16.79;48.09
58373;BME280;44177;43.356;27.672;2022-10-16T00:37:18;98825.22;;;16.79;48.18
58373;BME280;44177;43.356;27.672;2022-10-16T00:39:43;98823.63;;;16.78;48.16
58373;BME280;44177;43.356;27.672;2022-10-16T00:42:15;98818.91;;;16.79;48.11
58373;BME280;44177;43.356;27.672;2022-10-16T00:47:17;98824.41;;;16.79;47.87
58373;BME280;44177;43.356;27.672;2022-10-16T00:49:43;98827.22;;;16.82;47.90
58373;BME280;44177;43.356;27.672;2022-10-16T00:52:09;98828.38;;;16.81;47.62
58373;BME280;44177;43.356;27.672;2022-10-16T00:54:35;98824.06;;;16.80;47.63
58373;BME280;44177;43.356;27.672;2022-10-16T00:57:04;98834.69;;;16.82;47.90
58373;BME280;44177;43.356;27.672;2022-10-16T00:59:33;98812.56;;;16.74;47.88
58373;BME280;44177;43.356;27.672;2022-10-16T01:01:59;98828.38;;;16.81;47.89
58373;BME280;44177;43.356;27.672;2022-10-16T01:04:25;98828.38;;;16.81;47.66
58373;BME280;44177;43.356;27.672;2022-10-16T01:12:54;98840.94;;;16.79;47.74
58373;BME280;44177;43.356;27.672;2022-10-16T01:18:45;98842.91;;;16.78;48.04
58373;BME280;44177;43.356;27.672;2022-10-16T01:21:31;98843.69;;;16.79;47.84
58373;BME280;44177;43.356;27.672;2022-10-16T01:24:21;98850.38;;;16.78;47.74
58373;BME280;44177;43.356;27.672;2022-10-16T01:27:09;98854.72;;;16.79;47.59
58373;BME280;44177;43.356;27.672;2022-10-16T01:29:37;98862.97;;;16.79;47.91
58373;BME280;44177;43.356;27.672;2022-10-16T01:34:54;98857.47;;;16.79;47.98
58373;BME280;44177;43.356;27.672;2022-10-16T01:37:34;98855.47;;;16.76;47.86
58373;BME280;44177;43.356;27.672;2022-10-16T01:40:05;98864.16;;;16.78;47.64
58373;BME280;44177;43.356;27.672;2022-10-16T01:42:36;98861.38;;;16.78;47.66
58373;BME280;44177;43.356;27.672;2022-10-16T01:45:04;98862.16;;;16.74;47.94
58373;BME280;44177;43.356;27.672;2022-10-16T01:47:32;98862.19;;;16.78;47.56
58373;BME280;44177;43.356;27.672;2022-10-16T01:49:59;98865.75;;;16.79;47.65
58373;BME280;44177;43.356;27.672;2022-10-16T01:52:28;98872.41;;;16.78;47.89
58373;BME280;44177;43.356;27.672;2022-10-16T01:54:55;98864.16;;;16.78;47.81
58373;BME280;44177;43.356;27.672;2022-10-16T01:57:24;98869.25;;;16.76;47.66
58373;BME280;44177;43.356;27.672;2022-10-16T01:59:54;98880.28;;;16.76;47.80
58373;BME280;44177;43.356;27.672;2022-10-16T02:02:22;98872.41;;;16.78;47.92
58373;BME280;44177;43.356;27.672;2022-10-16T02:07:43;98883.44;;;16.78;47.82
58373;BME280;44177;43.356;27.672;2022-10-16T02:10:09;98879.13;;;16.77;47.58
58373;BME280;44177;43.356;27.672;2022-10-16T02:12:38;98877.91;;;16.78;47.77
58373;BME280;44177;43.356;27.672;2022-10-16T02:15:06;98879.13;;;16.77;47.68
58373;BME280;44177;43.356;27.672;2022-10-16T02:17:32;98870.00;;;16.72;47.62
58373;BME280;44177;43.356;27.672;2022-10-16T02:19:59;98879.13;;;16.77;47.79
58373;BME280;44177;43.356;27.672;2022-10-16T02:22:28;98880.69;;;16.78;48.00
58373;BME280;44177;43.356;27.672;2022-10-16T02:25:25;98892.88;;;16.77;47.64
58373;BME280;44177;43.356;27.672;2022-10-16T02:28:06;98887.38;;;16.77;47.64
58373;BME280;44177;43.356;27.672;2022-10-16T02:30:38;98889.31;;;16.76;47.57
58373;BME280;44177;43.356;27.672;2022-10-16T02:33:09;98881.38;;;16.71;47.65
58373;BME280;44177;43.356;27.672;2022-10-16T02:35:36;98895.22;;;16.74;47.63
58373;BME280;44177;43.356;27.672;2022-10-16T02:38:03;98889.69;;;16.74;47.91
58373;BME280;44177;43.356;27.672;2022-10-16T02:40:29;98884.09;;;16.67;47.87
58373;BME280;44177;43.356;27.672;2022-10-16T02:42:55;98890.47;;;16.75;47.95
58373;BME280;44177;43.356;27.672;2022-10-16T02:45:21;98897.97;;;16.74;47.73
58373;BME280;44177;43.356;27.672;2022-10-16T02:47:47;98895.22;;;16.74;47.87
58373;BME280;44177;43.356;27.672;2022-10-16T02:50:12;98899.13;;;16.73;47.56
58373;BME280;44177;43.356;27.672;2022-10-16T02:52:38;98905.41;;;16.74;47.86
58373;BME280;44177;43.356;27.672;2022-10-16T02:55:03;98904.63;;;16.73;47.76
58373;BME280;44177;43.356;27.672;2022-10-16T02:57:29;98901.88;;;16.73;47.95
58373;BME280;44177;43.356;27.672;2022-10-16T02:59:55;98903.47;;;16.74;47.59
58373;BME280;44177;43.356;27.672;2022-10-16T03:02:20;98896.38;;;16.73;47.53
58373;BME280;44177;43.356;27.672;2022-10-16T03:04:45;98898.34;;;16.73;47.63
58373;BME280;44177;43.356;27.672;2022-10-16T03:07:11;98892.03;;;16.72;47.72
58373;BME280;44177;43.356;27.672;2022-10-16T03:09:36;98890.88;;;16.73;47.57
58373;BME280;44177;43.356;27.672;2022-10-16T03:12:02;98901.88;;;16.73;47.89
58373;BME280;44177;43.356;27.672;2022-10-16T03:14:27;98898.34;;;16.73;47.47
58373;BME280;44177;43.356;27.672;2022-10-16T03:16:53;98895.94;;;16.71;47.46
58373;BME280;44177;43.356;27.672;2022-10-16T03:19:18;98903.84;;;16.73;47.47
58373;BME280;44177;43.356;27.672;2022-10-16T03:21:44;98905.81;;;16.72;47.69
58373;BME280;44177;43.356;27.672;2022-10-16T03:24:10;98893.19;;;16.71;47.77
58373;BME280;44177;43.356;27.672;2022-10-16T03:26:35;98897.47;;;16.69;47.94
58373;BME280;44177;43.356;27.672;2022-10-16T03:29:01;98902.22;;;16.68;47.75
58373;BME280;44177;43.356;27.672;2022-10-16T03:31:28;98897.44;;;16.65;47.92
58373;BME280;44177;43.356;27.672;2022-10-16T03:33:54;98910.88;;;16.70;47.76
58373;BME280;44177;43.356;27.672;2022-10-16T03:36:19;98910.09;;;16.70;47.52
58373;BME280;44177;43.356;27.672;2022-10-16T03:38:45;98912.03;;;16.69;47.48
58373;BME280;44177;43.356;27.672;2022-10-16T03:41:10;98907.72;;;16.68;47.43
58373;BME280;44177;43.356;27.672;2022-10-16T03:43:36;98911.63;;;16.67;47.61
58373;BME280;44177;43.356;27.672;2022-10-16T03:46:01;98917.16;;;16.67;47.73
58373;BME280;44177;43.356;27.672;2022-10-16T03:48:27;98908.88;;;16.67;47.59
58373;BME280;44177;43.356;27.672;2022-10-16T03:50:52;98911.25;;;16.69;47.50
58373;BME280;44177;43.356;27.672;2022-10-16T03:53:18;98918.75;;;16.68;47.57
58373;BME280;44177;43.356;27.672;2022-10-16T03:55:44;98913.94;;;16.65;47.59
58373;BME280;44177;43.356;27.672;2022-10-16T03:58:10;98913.94;;;16.65;47.55
58373;BME280;44177;43.356;27.672;2022-10-16T04:00:35;98922.66;;;16.67;47.53
58373;BME280;44177;43.356;27.672;2022-10-16T04:03:01;98921.06;;;16.66;47.47
58373;BME280;44177;43.356;27.672;2022-10-16T04:05:26;98927.34;;;16.67;47.80
58373;BME280;44177;43.356;27.672;2022-10-16T04:07:52;98923.81;;;16.66;47.45
58373;BME280;44177;43.356;27.672;2022-10-16T04:10:18;98922.53;;;16.60;47.43
58373;BME280;44177;43.356;27.672;2022-10-16T04:12:44;98927.72;;;16.65;47.65
58373;BME280;44177;43.356;27.672;2022-10-16T04:15:09;98924.97;;;16.65;47.62
58373;BME280;44177;43.356;27.672;2022-10-16T04:17:35;98934.41;;;16.64;47.47
58373;BME280;44177;43.356;27.672;2022-10-16T04:20:00;98923.38;;;16.64;47.56
58373;BME280;44177;43.356;27.672;2022-10-16T04:22:26;98924.97;;;16.65;47.71
58373;BME280;44177;43.356;27.672;2022-10-16T04:24:51;98922.22;;;16.65;47.75
58373;BME280;44177;43.356;27.672;2022-10-16T04:27:17;98914.69;;;16.62;47.59
58373;BME280;44177;43.356;27.672;2022-10-16T04:29:42;98912.38;;;16.64;47.75
58373;BME280;44177;43.356;27.672;2022-10-16T04:32:08;98913.53;;;16.63;47.80
58373;BME280;44177;43.356;27.672;2022-10-16T04:34:34;98927.28;;;16.63;47.42
58373;BME280;44177;43.356;27.672;2022-10-16T04:36:59;98924.53;;;16.63;47.82
58373;BME280;44177;43.356;27.672;2022-10-16T04:39:25;98927.28;;;16.63;47.74
58373;BME280;44177;43.356;27.672;2022-10-16T04:41:50;98935.94;;;16.62;47.48
58373;BME280;44177;43.356;27.672;2022-10-16T04:44:16;98930.44;;;16.62;47.78
58373;BME280;44177;43.356;27.672;2022-10-16T04:46:41;98926.50;;;16.63;47.40
58373;BME280;44177;43.356;27.672;2022-10-16T04:49:07;98933.97;;;16.62;47.43
58373;BME280;44177;43.356;27.672;2022-10-16T04:51:32;98941.44;;;16.62;47.74
58373;BME280;44177;43.356;27.672;2022-10-16T04:53:58;98940.66;;;16.61;47.71
58373;BME280;44177;43.356;27.672;2022-10-16T04:56:23;98948.94;;;16.61;47.64
58373;BME280;44177;43.356;27.672;2022-10-16T04:58:49;98944.56;;;16.60;47.45
58373;BME280;44177;43.356;27.672;2022-10-16T05:01:15;98946.16;;;16.61;47.85
58373;BME280;44177;43.356;27.672;2022-10-16T05:03:40;98946.16;;;16.61;47.40
58373;BME280;44177;43.356;27.672;2022-10-16T05:06:06;98950.88;;;16.61;47.56
58373;BME280;44177;43.356;27.672;2022-10-16T05:08:32;98950.88;;;16.61;47.83
58373;BME280;44177;43.356;27.672;2022-10-16T05:10:58;98959.13;;;16.61;47.44
58373;BME280;44177;43.356;27.672;2022-10-16T05:13:23;98957.53;;;16.60;47.45
58373;BME280;44177;43.356;27.672;2022-10-16T05:15:49;98954.78;;;16.60;47.34
58373;BME280;44177;43.356;27.672;2022-10-16T05:18:15;98953.13;;;16.55;47.51
58373;BME280;44177;43.356;27.672;2022-10-16T05:20:41;98964.19;;;16.58;47.78
58373;BME280;44177;43.356;27.672;2022-10-16T05:23:07;98964.19;;;16.58;47.60
58373;BME280;44177;43.356;27.672;2022-10-16T05:25:33;98972.13;;;16.60;47.86
58373;BME280;44177;43.356;27.672;2022-10-16T05:27:58;98973.63;;;16.57;47.88
58373;BME280;44177;43.356;27.672;2022-10-16T05:30:24;98970.47;;;16.55;47.78
58373;BME280;44177;43.356;27.672;2022-10-16T05:32:50;98979.06;;;16.54;47.79
58373;BME280;44177;43.356;27.672;2022-10-16T05:35:17;98975.53;;;16.53;47.59
58373;BME280;44177;43.356;27.672;2022-10-16T05:37:43;98979.84;;;16.51;47.82
58373;BME280;44177;43.356;27.672;2022-10-16T05:40:09;98984.47;;;16.47;47.83
58373;BME280;44177;43.356;27.672;2022-10-16T05:42:35;98997.50;;;16.50;48.12
58373;BME280;44177;43.356;27.672;2022-10-16T05:45:00;98992.38;;;16.48;47.83
58373;BME280;44177;43.356;27.672;2022-10-16T05:47:26;99001.88;;;16.51;48.20
58373;BME280;44177;43.356;27.672;2022-10-16T05:49:51;98996.34;;;16.51;48.12
58373;BME280;44177;43.356;27.672;2022-10-16T05:52:17;98997.94;;;16.52;47.85
58373;BME280;44177;43.356;27.672;2022-10-16T05:54:43;98995.19;;;16.52;47.71
58373;BME280;44177;43.356;27.672;2022-10-16T05:57:08;98999.53;;;16.53;47.67
58373;BME280;44177;43.356;27.672;2022-10-16T05:59:34;99010.97;;;16.55;47.62
58373;BME280;44177;43.356;27.672;2022-10-16T06:01:59;99003.50;;;16.55;47.79
58373;BME280;44177;43.356;27.672;2022-10-16T06:04:25;99001.16;;;16.57;47.92
58373;BME280;44177;43.356;27.672;2022-10-16T06:06:50;99006.78;;;16.61;47.88
58373;BME280;44177;43.356;27.672;2022-10-16T06:09:16;99011.53;;;16.64;47.63
58373;BME280;44177;43.356;27.672;2022-10-16T06:11:41;99014.28;;;16.64;47.34
58373;BME280;44177;43.356;27.672;2022-10-16T06:14:08;99011.53;;;16.64;47.39
58373;BME280;44177;43.356;27.672;2022-10-16T06:16:35;99014.28;;;16.64;47.73
58373;BME280;44177;43.356;27.672;2022-10-16T06:19:02;99014.28;;;16.64;47.77
58373;BME280;44177;43.356;27.672;2022-10-16T06:21:31;99017.03;;;16.64;47.51
58373;BME280;44177;43.356;27.672;2022-10-16T06:23:57;99027.28;;;16.64;47.61
58373;BME280;44177;43.356;27.672;2022-10-16T06:26:26;99020.94;;;16.63;47.83
58373;BME280;44177;43.356;27.672;2022-10-16T06:28:54;99029.66;;;16.65;47.33
58373;BME280;44177;43.356;27.672;2022-10-16T06:31:20;99028.06;;;16.64;47.74
58373;BME280;44177;43.356;27.672;2022-10-16T06:33:50;99030.81;;;16.64;47.76
58373;BME280;44177;43.356;27.672;2022-10-16T06:36:16;99035.16;;;16.65;47.71
58373;BME280;44177;43.356;27.672;2022-10-16T06:38:43;99028.06;;;16.64;47.87
58373;BME280;44177;43.356;27.672;2022-10-16T06:41:13;99037.13;;;16.65;47.44
58373;BME280;44177;43.356;27.672;2022-10-16T06:43:39;99039.13;;;16.68;47.42
58373;BME280;44177;43.356;27.672;2022-10-16T06:46:06;99050.97;;;16.68;47.25
58373;BME280;44177;43.356;27.672;2022-10-16T06:48:35;99049.00;;;16.69;47.50
58373;BME280;44177;43.356;27.672;2022-10-16T06:51:03;99055.66;;;16.68;47.47
58373;BME280;44177;43.356;27.672;2022-10-16T06:53:32;99054.13;;;16.70;47.42
58373;BME280;44177;43.356;27.672;2022-10-16T06:55:57;99050.16;;;16.68;47.57
58373;BME280;44177;43.356;27.672;2022-10-16T06:58:23;99064.44;;;16.73;47.35
58373;BME280;44177;43.356;27.672;2022-10-16T07:00:55;99061.66;;;16.73;47.46
58373;BME280;44177;43.356;27.672;2022-10-16T07:03:21;99065.66;;;16.76;47.50
58373;BME280;44177;43.356;27.672;2022-10-16T07:05:46;99070.00;;;16.77;47.29
58373;BME280;44177;43.356;27.672;2022-10-16T07:08:12;99070.78;;;16.78;47.61
58373;BME280;44177;43.356;27.672;2022-10-16T07:10:37;99080.63;;;16.79;47.46
58373;BME280;44177;43.356;27.672;2022-10-16T07:13:03;99071.53;;;16.74;47.50
58373;BME280;44177;43.356;27.672;2022-10-16T07:15:28;99075.13;;;16.79;47.51
58373;BME280;44177;43.356;27.672;2022-10-16T07:17:54;99073.19;;;16.79;47.60
58373;BME280;44177;43.356;27.672;2022-10-16T07:20:19;99069.28;;;16.80;47.24
58373;BME280;44177;43.356;27.672;2022-10-16T07:22:44;99066.16;;;16.82;47.14
58373;BME280;44177;43.356;27.672;2022-10-16T07:25:10;99071.66;;;16.82;47.48
58373;BME280;44177;43.356;27.672;2022-10-16T07:27:36;99065.69;;;16.80;47.24
58373;BME280;44177;43.356;27.672;2022-10-16T07:30:03;99076.44;;;16.85;47.34
58373;BME280;44177;43.356;27.672;2022-10-16T07:32:29;99078.81;;;16.86;47.45
58373;BME280;44177;43.356;27.672;2022-10-16T07:34:54;99069.75;;;16.86;47.00
58373;BME280;44177;43.356;27.672;2022-10-16T07:37:21;99082.06;;;16.92;47.13
58373;BME280;44177;43.356;27.672;2022-10-16T07:39:46;99075.84;;;16.95;47.20
58373;BME280;44177;43.356;27.672;2022-10-16T07:42:12;99082.56;;;16.98;46.85
58373;BME280;44177;43.356;27.672;2022-10-16T07:44:37;99085.75;;;17.00;46.70
58373;BME280;44177;43.356;27.672;2022-10-16T07:47:03;99085.03;;;17.03;46.78
58373;BME280;44177;43.356;27.672;2022-10-16T07:49:28;99076.00;;;17.06;46.98
58373;BME280;44177;43.356;27.672;2022-10-16T07:51:54;99075.66;;;17.08;46.80
58373;BME280;44177;43.356;27.672;2022-10-16T07:54:19;99081.59;;;17.10;46.72
58373;BME280;44177;43.356;27.672;2022-10-16T07:56:45;99084.78;;;17.12;46.81
58373;BME280;44177;43.356;27.672;2022-10-16T07:59:10;99080.00;;;17.09;46.76
58373;BME280;44177;43.356;27.672;2022-10-16T08:01:36;99091.50;;;17.14;46.53
58373;BME280;44177;43.356;27.672;2022-10-16T08:04:01;99084.03;;;17.15;46.62
58373;BME280;44177;43.356;27.672;2022-10-16T08:06:27;99084.44;;;17.17;46.46
58373;BME280;44177;43.356;27.672;2022-10-16T08:08:52;99081.69;;;17.17;46.61
58373;BME280;44177;43.356;27.672;2022-10-16T08:11:17;99089.63;;;17.18;46.44
58373;BME280;44177;43.356;27.672;2022-10-16T08:13:43;99088.03;;;17.17;46.77
58373;BME280;44177;43.356;27.672;2022-10-16T08:16:08;99084.88;;;17.19;46.63
58373;BME280;44177;43.356;27.672;2022-10-16T08:18:39;99088.06;;;17.21;46.49
58373;BME280;44177;43.356;27.672;2022-10-16T08:21:05;99090.47;;;17.23;46.57
58373;BME280;44177;43.356;27.672;2022-10-16T08:23:32;99081.84;;;17.24;46.56
58373;BME280;44177;43.356;27.672;2022-10-16T08:26:04;99082.63;;;17.25;46.45
58373;BME280;44177;43.356;27.672;2022-10-16T08:28:30;99085.81;;;17.27;46.53
58373;BME280;44177;43.356;27.672;2022-10-16T08:30:56;99090.56;;;17.30;46.16
58373;BME280;44177;43.356;27.672;2022-10-16T08:33:22;99081.13;;;17.31;46.22
58373;BME280;44177;43.356;27.672;2022-10-16T08:35:54;99086.66;;;17.31;46.15
58373;BME280;44177;43.356;27.672;2022-10-16T08:38:19;99086.69;;;17.34;46.49
58373;BME280;44177;43.356;27.672;2022-10-16T08:40:45;99083.59;;;17.36;46.21
58373;BME280;44177;43.356;27.672;2022-10-16T08:46:48;99085.59;;;17.39;46.10
58373;BME280;44177;43.356;27.672;2022-10-16T08:48:55;99088.34;;;17.39;46.42
58373;BME280;44177;43.356;27.672;2022-10-16T08:51:26;99089.22;;;17.43;46.25
58373;BME280;44177;43.356;27.672;2022-10-16T08:53:56;99091.59;;;17.45;46.05
58373;BME280;44177;43.356;27.672;2022-10-16T08:56:23;99094.78;;;17.47;46.19
58373;BME280;44177;43.356;27.672;2022-10-16T08:58:49;99090.88;;;17.48;45.90
58373;BME280;44177;43.356;27.672;2022-10-16T09:01:18;99101.91;;;17.48;45.87
58373;BME280;44177;43.356;27.672;2022-10-16T09:06:47;99095.63;;;17.51;45.91
58373;BME280;44177;43.356;27.672;2022-10-16T09:11:48;99098.81;;;17.53;45.92
58373;BME280;44177;43.356;27.672;2022-10-16T09:21:10;99099.25;;;17.55;45.86
58373;BME280;44177;43.356;27.672;2022-10-16T09:25:31;99101.25;;;17.58;45.90
58373;BME280;44177;43.356;27.672;2022-10-16T09:27:57;99089.00;;;17.56;45.94
58373;BME280;44177;43.356;27.672;2022-10-16T09:30:26;99098.13;;;17.60;45.64
58373;BME280;44177;43.356;27.672;2022-10-16T09:32:53;99092.22;;;17.61;46.00
58373;BME280;44177;43.356;27.672;2022-10-16T09:35:21;99091.84;;;17.63;45.97
58373;BME280;44177;43.356;27.672;2022-10-16T09:37:50;99097.81;;;17.65;45.66
58373;BME280;44177;43.356;27.672;2022-10-16T09:40:34;99084.78;;;17.65;45.68
58373;BME280;44177;43.356;27.672;2022-10-16T09:43:28;99068.22;;;17.65;45.56
58373;BME280;44177;43.356;27.672;2022-10-16T09:46:06;99076.94;;;17.67;45.82
58373;BME280;44177;43.356;27.672;2022-10-16T09:48:48;99081.72;;;17.71;45.84
58373;BME280;44177;43.356;27.672;2022-10-16T09:51:21;99084.09;;;17.72;45.79
58373;BME280;44177;43.356;27.672;2022-10-16T09:53:47;99083.25;;;17.68;45.68
58373;BME280;44177;43.356;27.672;2022-10-16T09:56:23;99087.66;;;17.73;45.84
58373;BME280;44177;43.356;27.672;2022-10-16T09:58:53;99084.09;;;17.72;45.57
58373;BME280;44177;43.356;27.672;2022-10-16T10:01:21;99084.53;;;17.74;45.83
58373;BME280;44177;43.356;27.672;2022-10-16T10:03:46;99085.31;;;17.75;45.44
58373;BME280;44177;43.356;27.672;2022-10-16T10:06:26;99086.91;;;17.76;45.36
58373;BME280;44177;43.356;27.672;2022-10-16T10:08:57;99070.63;;;17.67;45.56
58373;BME280;44177;43.356;27.672;2022-10-16T10:11:43;99075.88;;;17.76;45.49
58373;BME280;44177;43.356;27.672;2022-10-16T10:14:36;99087.34;;;17.78;45.29
58373;BME280;44177;43.356;27.672;2022-10-16T10:19:40;99083.41;;;17.79;45.54
58373;BME280;44177;43.356;27.672;2022-10-16T10:27:21;99071.53;;;17.75;45.35
58373;BME280;44177;43.356;27.672;2022-10-16T10:46:49;99065.34;;;17.85;45.11
58373;BME280;44177;43.356;27.672;2022-10-16T10:52:21;99066.19;;;17.89;44.96
58373;BME280;44177;43.356;27.672;2022-10-16T10:57:58;99077.28;;;17.93;45.18
58373;BME280;44177;43.356;27.672;2022-10-16T11:03:35;99078.16;;;17.97;45.10
58373;BME280;44177;43.356;27.672;2022-10-16T11:06:14;99069.38;;;17.91;45.19
58373;BME280;44177;43.356;27.672;2022-10-16T11:08:53;99072.63;;;17.97;45.06
58373;BME280;44177;43.356;27.672;2022-10-16T11:11:43;99063.97;;;17.98;44.83
58373;BME280;44177;43.356;27.672;2022-10-16T11:14:20;99058.03;;;17.96;45.25
58373;BME280;44177;43.356;27.672;2022-10-16T11:17:13;99066.72;;;17.98;45.16
58373;BME280;44177;43.356;27.672;2022-10-16T11:22:24;99049.00;;;17.99;44.94
58373;BME280;44177;43.356;27.672;2022-10-16T11:24:58;99054.13;;;18.01;44.86
58373;BME280;44177;43.356;27.672;2022-10-16T11:27:36;99045.06;;;18.01;44.85
58373;BME280;44177;43.356;27.672;2022-10-16T11:30:08;99056.53;;;18.03;45.11
58373;BME280;44177;43.356;27.672;2022-10-16T11:41:33;99055.34;;;18.04;45.03
58373;BME280;44177;43.356;27.672;2022-10-16T11:47:27;99054.59;;;18.07;44.82
58373;BME280;44177;43.356;27.672;2022-10-16T11:57:42;99056.97;;;18.08;44.56
58373;BME280;44177;43.356;27.672;2022-10-16T12:02:46;99059.75;;;18.08;44.59
58373;BME280;44177;43.356;27.672;2022-10-16T12:08:08;99063.31;;;18.09;44.54
58373;BME280;44177;43.356;27.672;2022-10-16T12:10:34;99075.13;;;18.09;44.84
58373;BME280;44177;43.356;27.672;2022-10-16T12:13:39;99072.75;;;18.08;44.69
58373;BME280;44177;43.356;27.672;2022-10-16T12:18:36;99060.88;;;18.04;44.65
58373;BME280;44177;43.356;27.672;2022-10-16T12:21:02;99064.88;;;18.06;44.94
58373;BME280;44177;43.356;27.672;2022-10-16T12:23:36;99056.13;;;18.01;44.64
58373;BME280;44177;43.356;27.672;2022-10-16T12:26:03;99071.91;;;18.04;44.55
58373;BME280;44177;43.356;27.672;2022-10-16T12:28:33;99073.50;;;18.05;44.52
58373;BME280;44177;43.356;27.672;2022-10-16T12:31:05;99071.13;;;18.03;44.76
58373;BME280;44177;43.356;27.672;2022-10-16T12:33:34;99073.88;;;18.03;44.50
58373;BME280;44177;43.356;27.672;2022-10-16T12:36:03;99069.16;;;18.04;44.50
58373;BME280;44177;43.356;27.672;2022-10-16T12:38:46;99066.38;;;18.04;44.51
58373;BME280;44177;43.356;27.672;2022-10-16T12:41:12;99067.59;;;18.03;44.56
58373;BME280;44177;43.356;27.672;2022-10-16T12:43:46;99067.94;;;18.01;44.83
58373;BME280;44177;43.356;27.672;2022-10-16T12:48:39;99082.91;;;18.00;44.62
58373;BME280;44177;43.356;27.672;2022-10-16T13:02:16;99092.34;;;17.95;44.82
58373;BME280;44177;43.356;27.672;2022-10-16T13:10:05;99096.25;;;17.94;44.77
58373;BME280;44177;43.356;27.672;2022-10-16T13:17:50;99096.97;;;17.91;45.03
58373;BME280;44177;43.356;27.672;2022-10-16T13:26:20;99093.00;;;17.89;45.11
58373;BME280;44177;43.356;27.672;2022-10-16T13:28:48;99085.88;;;17.88;45.13
58373;BME280;44177;43.356;27.672;2022-10-16T13:31:23;99080.31;;;17.84;44.84
58373;BME280;44177;43.356;27.672;2022-10-16T13:33:52;99072.78;;;17.81;44.91
58373;BME280;44177;43.356;27.672;2022-10-16T13:36:25;99092.16;;;17.84;45.07
58373;BME280;44177;43.356;27.672;2022-10-16T13:39:30;99101.63;;;17.83;45.03
58373;BME280;44177;43.356;27.672;2022-10-16T13:42:46;99100.81;;;17.83;45.03
58373;BME280;44177;43.356;27.672;2022-10-16T13:44:54;99108.66;;;17.81;45.09
58373;BME280;44177;43.356;27.672;2022-10-16T13:49:58;99104.28;;;17.80;45.03
58373;BME280;44177;43.356;27.672;2022-10-16T13:52:23;99096.03;;;17.80;44.96
58373;BME280;44177;43.356;27.672;2022-10-16T13:54:49;99098.38;;;17.78;45.05
58373;BME280;44177;43.356;27.672;2022-10-16T13:57:15;99101.13;;;17.78;45.08
58373;BME280;44177;43.356;27.672;2022-10-16T13:59:41;99107.81;;;17.77;45.11
58373;BME280;44177;43.356;27.672;2022-10-16T14:04:52;99107.81;;;17.77;45.33
58373;BME280;44177;43.356;27.672;2022-10-16T14:07:25;99110.16;;;17.75;44.97
58373;BME280;44177;43.356;27.672;2022-10-16T14:09:52;99110.16;;;17.75;45.06
58373;BME280;44177;43.356;27.672;2022-10-16T14:12:18;99115.66;;;17.75;45.28
58373;BME280;44177;43.356;27.672;2022-10-16T14:14:47;99114.47;;;17.72;45.19
58373;BME280;44177;43.356;27.672;2022-10-16T14:17:20;99114.84;;;17.71;45.32
58373;BME280;44177;43.356;27.672;2022-10-16T14:19:50;99110.84;;;17.68;45.10
58373;BME280;44177;43.356;27.672;2022-10-16T14:22:39;99112.81;;;17.67;45.25
58373;BME280;44177;43.356;27.672;2022-10-16T14:27:45;99119.50;;;17.66;45.10
58373;BME280;44177;43.356;27.672;2022-10-16T14:32:41;99122.63;;;17.65;45.27
58373;BME280;44177;43.356;27.672;2022-10-16T14:35:35;99119.06;;;17.64;45.40
58373;BME280;44177;43.356;27.672;2022-10-16T14:38:02;99119.06;;;17.64;45.37
58373;BME280;44177;43.356;27.672;2022-10-16T14:40:31;99110.28;;;17.55;45.27
58373;BME280;44177;43.356;27.672;2022-10-16T14:42:57;99129.69;;;17.62;45.49
58373;BME280;44177;43.356;27.672;2022-10-16T14:45:26;99132.81;;;17.61;45.44
58373;BME280;44177;43.356;27.672;2022-10-16T14:47:58;99126.50;;;17.60;45.57
58373;BME280;44177;43.356;27.672;2022-10-16T14:50:24;99128.00;;;17.54;45.54
58373;BME280;44177;43.356;27.672;2022-10-16T14:52:50;99127.56;;;17.52;45.64
58373;BME280;44177;43.356;27.672;2022-10-16T14:55:16;99135.16;;;17.59;45.37
58373;BME280;44177;43.356;27.672;2022-10-16T14:57:43;99130.00;;;17.57;45.66
58373;BME280;44177;43.356;27.672;2022-10-16T15:00:17;99125.63;;;17.56;45.71
58373;BME280;44177;43.356;27.672;2022-10-16T15:02:44;99133.13;;;17.56;45.59
58373;BME280;44177;43.356;27.672;2022-10-16T15:05:19;99125.22;;;17.54;45.62
58373;BME280;44177;43.356;27.672;2022-10-16T15:07:46;99125.53;;;17.49;45.69
58373;BME280;44177;43.356;27.672;2022-10-16T15:10:13;99139.38;;;17.52;45.64
58373;BME280;44177;43.356;27.672;2022-10-16T15:12:39;99134.25;;;17.51;45.41
58373;BME280;44177;43.356;27.672;2022-10-16T15:17:48;99132.53;;;17.43;45.67
58373;BME280;44177;43.356;27.672;2022-10-16T15:20:13;99144.44;;;17.47;45.53